createdAt,value
2019-03-10T00:00:51.328Z,8.20
2019-03-10T00:01:51.308Z,8.70
2019-03-10T00:02:51.309Z,9.80
2019-03-10T00:03:51.307Z,9.20
2019-03-10T00:04:51.324Z,9.10
2019-03-10T00:05:51.266Z,6.40
2019-03-10T00:06:51.309Z,7.30
2019-03-10T00:07:51.259Z,10.30
2019-03-10T00:08:51.271Z,5.70
2019-03-10T00:09:51.224Z,7.80
2019-03-10T00:10:51.211Z,8.20
2019-03-10T00:11:51.202Z,8.90
2019-03-10T00:12:51.215Z,6.80
2019-03-10T00:13:51.212Z,6.00
2019-03-10T00:14:51.164Z,6.70
2019-03-10T00:15:51.160Z,9.30
2019-03-10T00:16:51.157Z,8.80
2019-03-10T00:17:51.145Z,8.40
2019-03-10T00:18:51.144Z,8.50
2019-03-10T00:19:51.133Z,7.60
2019-03-10T00:20:51.103Z,8.40
2019-03-10T00:21:51.113Z,8.90
2019-03-10T00:22:51.079Z,6.60
2019-03-10T00:23:51.138Z,6.00
2019-03-10T00:24:51.062Z,8.70
2019-03-10T00:25:51.231Z,9.20
2019-03-10T00:26:51.039Z,8.60
2019-03-10T00:27:51.020Z,11.40
2019-03-10T00:28:51.024Z,7.40
2019-03-10T00:29:50.999Z,9.40
2019-03-10T00:30:50.990Z,6.50
2019-03-10T00:31:50.977Z,6.60
2019-03-10T00:32:50.972Z,8.00
2019-03-10T00:33:50.965Z,8.30
2019-03-10T00:34:50.952Z,7.00
2019-03-10T00:35:50.944Z,10.50
2019-03-10T00:36:50.920Z,7.40
2019-03-10T00:37:50.925Z,7.60
2019-03-10T00:38:50.907Z,8.60
2019-03-10T00:39:51.010Z,7.60
2019-03-10T00:40:50.877Z,9.30
2019-03-10T00:41:50.871Z,9.20
2019-03-10T00:42:50.857Z,7.40
2019-03-10T00:43:50.854Z,7.60
2019-03-10T00:44:50.849Z,7.90
2019-03-10T00:45:50.841Z,8.60
2019-03-10T00:46:50.921Z,8.20
2019-03-10T00:47:50.801Z,7.60
2019-03-10T00:48:50.794Z,10.10
2019-03-10T00:49:50.794Z,9.30
2019-03-10T00:50:50.781Z,5.90
2019-03-10T00:51:50.759Z,7.90
2019-03-10T00:52:50.745Z,8.70
2019-03-10T00:53:50.869Z,8.40
2019-03-10T00:54:50.722Z,7.80
2019-03-10T00:55:50.716Z,8.30
2019-03-10T00:56:50.706Z,11.40
2019-03-10T00:57:50.687Z,9.90
2019-03-10T00:58:50.800Z,8.60
2019-03-10T00:59:50.668Z,7.90
2019-03-10T01:00:50.753Z,9.30
2019-03-10T01:01:50.644Z,10.00
2019-03-10T01:02:50.665Z,7.80
2019-03-10T01:03:50.632Z,9.70
2019-03-10T01:04:50.629Z,7.10
2019-03-10T01:05:50.599Z,8.30
2019-03-10T01:06:50.599Z,8.40
2019-03-10T01:07:51.553Z,6.00
2019-03-10T01:08:50.609Z,8.30
2019-03-10T01:09:50.564Z,7.30
2019-03-10T01:10:50.541Z,5.90
2019-03-10T01:11:50.531Z,7.70
2019-03-10T01:12:50.560Z,12.80
2019-03-10T01:13:50.548Z,7.10
2019-03-10T01:14:50.539Z,7.50
2019-03-10T01:15:50.489Z,6.80
2019-03-10T01:16:50.477Z,7.10
2019-03-10T01:17:50.462Z,6.60
2019-03-10T01:18:50.479Z,7.60
2019-03-10T01:19:50.459Z,10.20
2019-03-10T01:20:50.428Z,6.30
2019-03-10T01:21:50.417Z,7.10
2019-03-10T01:22:50.428Z,7.10
2019-03-10T01:23:50.402Z,8.20
2019-03-10T01:24:50.405Z,8.70
2019-03-10T01:25:50.373Z,10.20
2019-03-10T01:26:50.362Z,3.70
2019-03-10T01:27:50.353Z,9.10
2019-03-10T01:28:50.345Z,7.70
2019-03-10T01:29:50.344Z,6.60
2019-03-10T01:30:50.338Z,7.10
2019-03-10T01:31:50.332Z,5.20
2019-03-10T01:32:50.293Z,5.70
2019-03-10T01:33:50.326Z,7.10
2019-03-10T01:34:50.274Z,5.00
2019-03-10T01:35:50.273Z,4.60
2019-03-10T01:36:50.262Z,5.80
2019-03-10T01:37:50.249Z,5.70
2019-03-10T01:38:50.262Z,5.20
2019-03-10T01:39:50.240Z,6.60
2019-03-10T01:40:50.227Z,6.60
2019-03-10T01:41:50.202Z,7.20
2019-03-10T01:42:50.185Z,7.70
2019-03-10T01:43:50.185Z,5.20
2019-03-10T01:44:50.168Z,6.30
2019-03-10T01:45:50.150Z,4.90
2019-03-10T01:46:50.155Z,4.10
2019-03-10T01:47:50.142Z,6.90
2019-03-10T01:48:50.116Z,7.20
2019-03-10T01:49:50.123Z,6.70
2019-03-10T01:50:50.093Z,6.20
2019-03-10T01:51:50.092Z,5.90
2019-03-10T01:52:50.076Z,9.50
2019-03-10T01:53:50.073Z,5.70
2019-03-10T01:54:50.077Z,6.80
2019-03-10T01:55:50.048Z,5.90
2019-03-10T01:56:50.047Z,6.90
2019-03-10T01:57:50.016Z,5.90
2019-03-10T01:58:50.070Z,4.90
2019-03-10T01:59:50.001Z,6.70
2019-03-10T02:00:49.993Z,7.70
2019-03-10T02:01:49.979Z,7.60
2019-03-10T02:02:49.964Z,6.20
2019-03-10T02:03:49.951Z,5.60
2019-03-10T02:04:49.951Z,5.10
2019-03-10T02:05:49.926Z,5.40
2019-03-10T02:06:49.919Z,7.40
2019-03-10T02:07:49.910Z,7.30
2019-03-10T02:08:49.903Z,7.10
2019-03-10T02:09:49.902Z,5.00
2019-03-10T02:10:49.870Z,5.20
2019-03-10T02:11:49.858Z,6.50
2019-03-10T02:12:49.850Z,6.40
2019-03-10T02:13:49.838Z,6.40
2019-03-10T02:14:49.847Z,5.10
2019-03-10T02:15:49.816Z,6.00
2019-03-10T02:16:49.811Z,8.70
2019-03-10T02:17:49.810Z,4.00
2019-03-10T02:18:49.783Z,3.70
2019-03-10T02:19:49.784Z,4.10
2019-03-10T02:20:49.787Z,5.60
2019-03-10T02:21:49.782Z,6.20
2019-03-10T02:22:49.738Z,4.80
2019-03-10T02:23:49.725Z,6.80
2019-03-10T02:24:49.726Z,4.80
2019-03-10T02:25:49.726Z,6.80
2019-03-10T02:26:49.696Z,5.20
2019-03-10T02:27:49.717Z,4.80
2019-03-10T02:28:49.677Z,6.40
2019-03-10T02:29:49.677Z,5.60
2019-03-10T02:30:49.654Z,4.30
2019-03-10T02:31:49.650Z,6.90
2019-03-10T02:32:49.627Z,2.70
2019-03-10T02:33:49.630Z,4.20
2019-03-10T02:34:49.621Z,4.70
2019-03-10T02:35:49.600Z,5.80
2019-03-10T02:36:49.598Z,4.90
2019-03-10T02:37:49.573Z,7.40
2019-03-10T02:38:49.651Z,3.80
2019-03-10T02:39:49.563Z,6.10
2019-03-10T02:40:49.543Z,5.40
2019-03-10T02:41:49.531Z,5.00
2019-03-10T02:42:49.535Z,6.30
2019-03-10T02:43:49.587Z,4.50
2019-03-10T02:44:49.495Z,5.80
2019-03-10T02:45:49.494Z,4.30
2019-03-10T02:46:49.478Z,6.10
2019-03-10T02:47:49.466Z,4.40
2019-03-10T02:48:49.452Z,3.70
2019-03-10T02:49:49.445Z,4.20
2019-03-10T02:50:49.558Z,3.80
2019-03-10T02:51:49.420Z,6.70
2019-03-10T02:52:49.407Z,4.70
2019-03-10T02:53:49.419Z,4.90
2019-03-10T02:54:49.394Z,5.90
2019-03-10T02:55:49.382Z,4.30
2019-03-10T02:56:49.374Z,3.70
2019-03-10T02:57:57.017Z,4.50
2019-03-10T02:58:49.369Z,6.30
2019-03-10T02:59:49.338Z,4.50
2019-03-10T03:00:49.324Z,3.70
2019-03-10T03:01:49.309Z,4.30
2019-03-10T03:02:49.292Z,5.70
2019-03-10T03:03:49.289Z,4.20
2019-03-10T03:04:49.297Z,4.20
2019-03-10T03:05:49.281Z,3.70
2019-03-10T03:06:49.251Z,4.10
2019-03-10T03:07:49.239Z,5.50
2019-03-10T03:08:49.237Z,4.20
2019-03-10T03:09:49.232Z,3.90
2019-03-10T03:10:49.222Z,4.60
2019-03-10T03:11:49.199Z,4.30
2019-03-10T03:12:49.199Z,6.90
2019-03-10T03:13:49.177Z,5.00
2019-03-10T03:14:49.191Z,4.70
2019-03-10T03:15:49.159Z,6.30
2019-03-10T03:16:49.146Z,4.60
2019-03-10T03:17:49.171Z,4.20
2019-03-10T03:18:49.124Z,4.30
2019-03-10T03:19:49.124Z,7.50
2019-03-10T03:20:49.103Z,5.40
2019-03-10T03:21:49.095Z,6.40
2019-03-10T03:22:49.077Z,5.30
2019-03-10T03:23:49.095Z,6.10
2019-03-10T03:24:49.101Z,4.60
2019-03-10T03:25:49.044Z,8.10
2019-03-10T03:26:49.051Z,8.10
2019-03-10T03:27:49.042Z,5.70
2019-03-10T03:28:49.032Z,5.00
2019-03-10T03:29:49.027Z,6.20
2019-03-10T03:30:49.035Z,5.10
2019-03-10T03:31:49.037Z,5.40
2019-03-10T03:32:49.008Z,6.20
2019-03-10T03:33:49.030Z,5.30
2019-03-10T03:34:48.943Z,5.10
2019-03-10T03:35:48.938Z,5.10
2019-03-10T03:36:48.927Z,6.10
2019-03-10T03:37:48.908Z,7.30
2019-03-10T03:38:48.923Z,6.10
2019-03-10T03:39:48.883Z,6.00
2019-03-10T03:40:49.102Z,6.80
2019-03-10T03:41:48.886Z,7.10
2019-03-10T03:42:48.849Z,5.00
2019-03-10T03:43:48.890Z,4.40
2019-03-10T03:44:48.839Z,4.90
2019-03-10T03:45:48.831Z,6.70
2019-03-10T03:46:48.823Z,5.50
2019-03-10T03:47:48.791Z,7.10
2019-03-10T03:48:48.796Z,5.60
2019-03-10T03:49:48.777Z,5.90
2019-03-10T03:50:48.785Z,4.20
2019-03-10T03:51:48.771Z,6.20
2019-03-10T03:52:48.771Z,4.10
2019-03-10T03:53:48.750Z,6.00
2019-03-10T03:54:48.732Z,3.20
2019-03-10T03:55:48.772Z,3.80
2019-03-10T03:56:48.709Z,4.00
2019-03-10T03:57:48.715Z,5.10
2019-03-10T03:58:48.674Z,6.40
2019-03-10T03:59:48.705Z,5.00
2019-03-10T04:00:48.661Z,4.50
2019-03-10T04:01:48.665Z,4.40
2019-03-10T04:02:48.739Z,4.40
2019-03-10T04:03:48.620Z,6.20
2019-03-10T04:04:48.605Z,4.30
2019-03-10T04:05:48.599Z,5.00
2019-03-10T04:06:48.601Z,4.80
2019-03-10T04:07:48.649Z,5.00
2019-03-10T04:08:48.562Z,5.80
2019-03-10T04:09:48.550Z,6.20
2019-03-10T04:10:48.559Z,4.50
2019-03-10T04:11:48.556Z,5.00
2019-03-10T04:12:48.581Z,3.70
2019-03-10T04:13:48.508Z,4.90
2019-03-10T04:14:48.501Z,3.50
2019-03-10T04:15:48.491Z,5.10
2019-03-10T04:16:48.483Z,4.90
2019-03-10T04:17:48.470Z,4.40
2019-03-10T04:18:48.459Z,5.30
2019-03-10T04:19:48.471Z,4.30
2019-03-10T04:20:48.429Z,4.40
2019-03-10T04:21:48.435Z,5.20
2019-03-10T04:22:48.476Z,5.50
2019-03-10T04:23:48.398Z,6.80
2019-03-10T04:24:48.382Z,5.30
2019-03-10T04:25:48.386Z,6.30
2019-03-10T04:26:48.423Z,5.20
2019-03-10T04:27:48.380Z,5.40
2019-03-10T04:28:48.349Z,5.00
2019-03-10T04:29:48.375Z,5.90
2019-03-10T04:30:48.321Z,7.20
2019-03-10T04:31:48.318Z,5.20
2019-03-10T04:32:48.350Z,4.30
2019-03-10T04:33:48.290Z,3.90
2019-03-10T04:34:48.271Z,5.20
2019-03-10T04:35:48.260Z,6.40
2019-03-10T04:36:48.510Z,5.80
2019-03-10T04:37:48.248Z,4.90
2019-03-10T04:38:48.230Z,4.50
2019-03-10T04:39:48.220Z,7.20
2019-03-10T04:40:48.223Z,5.50
2019-03-10T04:41:48.205Z,4.30
2019-03-10T04:42:48.249Z,7.00
2019-03-10T04:43:48.185Z,5.00
2019-03-10T04:44:48.167Z,3.80
2019-03-10T04:45:48.148Z,3.90
2019-03-10T04:46:48.173Z,5.50
2019-03-10T04:47:48.135Z,4.70
2019-03-10T04:48:48.119Z,3.10
2019-03-10T04:49:48.113Z,3.90
2019-03-10T04:50:48.101Z,3.30
2019-03-10T04:51:48.100Z,6.10
2019-03-10T04:52:48.186Z,5.70
2019-03-10T04:53:48.063Z,4.40
2019-03-10T04:54:48.055Z,5.40
2019-03-10T04:55:48.045Z,3.50
2019-03-10T04:56:48.048Z,4.40
2019-03-10T04:57:48.039Z,6.90
2019-03-10T04:58:48.027Z,6.30
2019-03-10T04:59:47.999Z,5.90
2019-03-10T05:00:48.006Z,4.60
2019-03-10T05:01:47.977Z,3.60
2019-03-10T05:02:48.022Z,7.50
2019-03-10T05:03:47.958Z,6.50
2019-03-10T05:04:47.964Z,6.90
2019-03-10T05:05:47.929Z,5.40
2019-03-10T05:06:47.925Z,4.20
2019-03-10T05:07:47.965Z,2.60
2019-03-10T05:08:47.899Z,5.80
2019-03-10T05:09:47.888Z,3.20
2019-03-10T05:10:47.885Z,4.10
2019-03-10T05:11:47.895Z,3.20
2019-03-10T05:12:47.861Z,4.00
2019-03-10T05:13:47.847Z,2.50
2019-03-10T05:14:47.887Z,2.60
2019-03-10T05:15:47.829Z,3.10
2019-03-10T05:16:47.812Z,3.50
2019-03-10T05:17:47.817Z,5.50
2019-03-10T05:18:47.799Z,5.40
2019-03-10T05:19:47.794Z,4.30
2019-03-10T05:20:47.774Z,3.10
2019-03-10T05:21:47.761Z,4.10
2019-03-10T05:22:47.777Z,3.30
2019-03-10T05:23:47.732Z,3.70
2019-03-10T05:24:47.715Z,2.70
2019-03-10T05:25:47.752Z,3.70
2019-03-10T05:26:47.702Z,4.50
2019-03-10T05:27:47.739Z,3.50
2019-03-10T05:28:47.688Z,3.30
2019-03-10T05:29:47.678Z,4.20
2019-03-10T05:30:47.729Z,6.10
2019-03-10T05:31:47.712Z,3.40
2019-03-10T05:32:47.630Z,5.60
2019-03-10T05:33:47.628Z,3.40
2019-03-10T05:34:47.604Z,3.70
2019-03-10T05:35:47.602Z,4.70
2019-03-10T05:36:47.601Z,4.60
2019-03-10T05:37:47.598Z,3.50
2019-03-10T05:38:47.561Z,5.60
2019-03-10T05:39:47.549Z,3.90
2019-03-10T05:40:47.540Z,5.70
2019-03-10T05:41:47.573Z,3.50
2019-03-10T05:42:47.566Z,5.00
2019-03-10T05:43:47.503Z,3.80
2019-03-10T05:44:47.509Z,4.00
2019-03-10T05:45:47.484Z,4.70
2019-03-10T05:46:47.472Z,7.60
2019-03-10T05:47:47.466Z,6.90
2019-03-10T05:48:47.453Z,6.30
2019-03-10T05:49:47.479Z,3.20
2019-03-10T05:50:47.431Z,4.10
2019-03-10T05:51:47.427Z,5.30
2019-03-10T05:52:47.476Z,3.70
2019-03-10T05:53:47.396Z,5.00
2019-03-10T05:54:47.389Z,5.70
2019-03-10T05:55:47.376Z,4.90
2019-03-10T05:56:47.360Z,5.10
2019-03-10T05:57:47.394Z,6.50
2019-03-10T05:58:47.383Z,4.70
2019-03-10T05:59:47.339Z,4.30
2019-03-10T06:00:47.327Z,4.10
2019-03-10T06:01:47.305Z,5.70
2019-03-10T06:02:47.303Z,5.60
2019-03-10T06:03:47.288Z,8.70
2019-03-10T06:04:47.272Z,6.30
2019-03-10T06:05:47.286Z,5.70
2019-03-10T06:06:47.260Z,6.20
2019-03-10T06:07:47.253Z,5.00
2019-03-10T06:08:47.244Z,5.50
2019-03-10T06:09:47.233Z,5.10
2019-03-10T06:10:47.245Z,6.70
2019-03-10T06:11:47.192Z,5.10
2019-03-10T06:12:47.225Z,7.50
2019-03-10T06:13:47.174Z,3.40
2019-03-10T06:14:47.164Z,5.90
2019-03-10T06:15:47.317Z,3.80
2019-03-10T06:16:47.168Z,6.20
2019-03-10T06:17:47.235Z,8.00
2019-03-10T06:18:47.122Z,4.70
2019-03-10T06:19:47.181Z,5.10
2019-03-10T06:20:47.108Z,6.70
2019-03-10T06:21:47.081Z,4.20
2019-03-10T06:22:47.118Z,6.80
2019-03-10T06:23:47.063Z,3.20
2019-03-10T06:24:47.058Z,6.00
2019-03-10T06:25:47.044Z,5.40
2019-03-10T06:26:47.027Z,5.60
2019-03-10T06:27:47.036Z,3.40
2019-03-10T06:28:47.012Z,7.00
2019-03-10T06:29:47.006Z,6.70
2019-03-10T06:30:46.987Z,7.10
2019-03-10T06:31:46.984Z,4.40
2019-03-10T06:32:47.046Z,5.70
2019-03-10T06:33:46.978Z,5.10
2019-03-10T06:34:46.945Z,5.50
2019-03-10T06:35:46.931Z,5.40
2019-03-10T06:36:46.950Z,4.70
2019-03-10T06:37:47.021Z,5.00
2019-03-10T06:38:46.895Z,6.20
2019-03-10T06:39:47.016Z,6.30
2019-03-10T06:40:46.872Z,7.20
2019-03-10T06:41:46.874Z,6.90
2019-03-10T06:42:46.911Z,4.60
2019-03-10T06:43:46.840Z,4.80
2019-03-10T06:44:46.833Z,3.90
2019-03-10T06:45:46.820Z,6.20
2019-03-10T06:46:46.821Z,7.90
2019-03-10T06:47:46.890Z,6.50
2019-03-10T06:48:46.788Z,9.30
2019-03-10T06:49:46.794Z,5.00
2019-03-10T06:50:46.787Z,5.40
2019-03-10T06:51:46.830Z,4.80
2019-03-10T06:52:46.956Z,3.90
2019-03-10T06:53:46.736Z,3.50
2019-03-10T06:54:46.734Z,4.10
2019-03-10T06:55:46.720Z,4.60
2019-03-10T06:56:46.718Z,6.40
2019-03-10T06:57:46.705Z,3.50
2019-03-10T06:58:46.736Z,4.20
2019-03-10T06:59:46.693Z,6.80
2019-03-10T07:00:46.670Z,6.70
2019-03-10T07:01:46.678Z,2.90
2019-03-10T07:02:46.655Z,3.70
2019-03-10T07:03:46.629Z,4.70
2019-03-10T07:04:46.630Z,3.10
2019-03-10T07:05:46.725Z,4.40
2019-03-10T07:06:46.630Z,4.10
2019-03-10T07:07:46.643Z,3.70
2019-03-10T07:08:46.601Z,5.00
2019-03-10T07:09:46.630Z,3.30
2019-03-10T07:10:46.557Z,4.80
2019-03-10T07:11:46.547Z,4.50
2019-03-10T07:12:46.675Z,5.90
2019-03-10T07:13:46.524Z,3.70
2019-03-10T07:14:46.523Z,3.10
2019-03-10T07:15:46.506Z,5.90
2019-03-10T07:16:46.493Z,5.10
2019-03-10T07:17:46.545Z,2.90
2019-03-10T07:18:46.477Z,2.60
2019-03-10T07:19:46.613Z,5.90
2019-03-10T07:20:46.460Z,4.10
2019-03-10T07:21:46.557Z,5.40
2019-03-10T07:22:46.440Z,7.00
2019-03-10T07:23:46.423Z,3.90
2019-03-10T07:24:46.555Z,2.70
2019-03-10T07:25:46.408Z,7.50
2019-03-10T07:26:46.492Z,5.00
2019-03-10T07:27:46.373Z,3.00
2019-03-10T07:28:46.376Z,4.10
2019-03-10T07:29:46.354Z,3.70
2019-03-10T07:30:46.345Z,7.50
2019-03-10T07:31:46.381Z,3.70
2019-03-10T07:32:46.343Z,4.90
2019-03-10T07:33:46.318Z,4.90
2019-03-10T07:34:46.316Z,3.00
2019-03-10T07:35:46.286Z,5.40
2019-03-10T07:36:46.312Z,2.90
2019-03-10T07:37:46.320Z,3.40
2019-03-10T07:38:46.259Z,3.20
2019-03-10T07:39:46.248Z,3.50
2019-03-10T07:40:46.248Z,7.10
2019-03-10T07:41:46.234Z,4.70
2019-03-10T07:42:46.284Z,3.40
2019-03-10T07:43:46.209Z,5.90
2019-03-10T07:44:46.231Z,4.10
2019-03-10T07:45:46.188Z,5.40
2019-03-10T07:46:46.193Z,3.10
2019-03-10T07:47:46.268Z,4.30
2019-03-10T07:48:46.184Z,3.10
2019-03-10T07:49:46.157Z,4.80
2019-03-10T07:50:46.131Z,3.90
2019-03-10T07:51:46.143Z,4.90
2019-03-10T07:52:46.127Z,4.50
2019-03-10T07:53:46.134Z,5.20
2019-03-10T07:54:46.120Z,5.30
2019-03-10T07:55:46.122Z,5.00
2019-03-10T07:56:46.072Z,4.20
2019-03-10T07:57:46.111Z,8.90
2019-03-10T07:58:46.045Z,7.30
2019-03-10T07:59:46.040Z,6.20
2019-03-10T08:00:46.038Z,3.40
2019-03-10T08:01:46.030Z,3.50
2019-03-10T08:02:46.180Z,7.80
2019-03-10T08:03:45.985Z,10.30
2019-03-10T08:04:46.001Z,3.10
2019-03-10T08:05:45.996Z,5.50
2019-03-10T08:06:45.960Z,8.00
2019-03-10T08:07:46.028Z,4.50
2019-03-10T08:08:45.965Z,6.60
2019-03-10T08:09:45.994Z,4.40
2019-03-10T08:10:45.930Z,4.90
2019-03-10T08:11:45.901Z,6.00
2019-03-10T08:12:45.942Z,8.20
2019-03-10T08:13:45.945Z,4.10
2019-03-10T08:14:45.872Z,4.00
2019-03-10T08:15:45.866Z,4.10
2019-03-10T08:16:45.939Z,3.10
2019-03-10T08:17:45.915Z,7.60
2019-03-10T08:18:45.835Z,4.50
2019-03-10T08:19:45.839Z,4.60
2019-03-10T08:20:45.806Z,8.40
2019-03-10T08:21:46.080Z,8.40
2019-03-10T08:22:45.823Z,3.90
2019-03-10T08:23:45.978Z,10.70
2019-03-10T08:24:45.769Z,4.20
2019-03-10T08:25:45.772Z,4.20
2019-03-10T08:26:45.755Z,6.30
2019-03-10T08:27:45.827Z,3.50
2019-03-10T08:28:45.722Z,8.80
2019-03-10T08:29:45.751Z,5.00
2019-03-10T08:30:45.731Z,3.00
2019-03-10T08:31:45.695Z,5.20
2019-03-10T08:32:45.692Z,4.00
2019-03-10T08:33:45.673Z,5.80
2019-03-10T08:34:45.689Z,5.40
2019-03-10T08:35:45.666Z,3.10
2019-03-10T08:36:45.634Z,2.90
2019-03-10T08:37:45.838Z,5.80
2019-03-10T08:38:45.614Z,4.30
2019-03-10T08:39:45.612Z,3.70
2019-03-10T08:40:45.606Z,3.90
2019-03-10T08:41:45.625Z,4.10
2019-03-10T08:42:45.611Z,3.50
2019-03-10T08:43:45.573Z,5.20
2019-03-10T08:44:45.563Z,3.70
2019-03-10T08:45:45.598Z,4.60
2019-03-10T08:46:45.529Z,3.80
2019-03-10T08:47:45.729Z,4.00
2019-03-10T08:48:45.511Z,4.10
2019-03-10T08:49:45.716Z,5.60
2019-03-10T08:50:45.499Z,7.00
2019-03-10T08:51:45.487Z,3.40
2019-03-10T08:52:45.524Z,5.00
2019-03-10T08:53:45.462Z,2.90
2019-03-10T08:54:45.473Z,6.00
2019-03-10T08:55:45.432Z,3.30
2019-03-10T08:56:45.427Z,2.20
2019-03-10T08:57:46.046Z,3.50
2019-03-10T08:58:45.428Z,3.20
2019-03-10T08:59:45.399Z,3.30
2019-03-10T09:00:45.391Z,3.50
2019-03-10T09:01:45.399Z,4.60
2019-03-10T09:02:45.499Z,9.10
2019-03-10T09:03:45.354Z,5.30
2019-03-10T09:04:45.338Z,4.30
2019-03-10T09:05:45.362Z,5.70
2019-03-10T09:06:45.343Z,2.10
2019-03-10T09:07:45.492Z,5.60
2019-03-10T09:08:45.307Z,4.20
2019-03-10T09:09:45.997Z,5.40
2019-03-10T09:10:45.472Z,5.30
2019-03-10T09:11:45.427Z,3.30
2019-03-10T09:12:45.275Z,6.20
2019-03-10T09:13:45.243Z,5.40
2019-03-10T09:14:45.270Z,3.10
2019-03-10T09:15:45.237Z,5.00
2019-03-10T09:16:45.209Z,5.00
2019-03-10T09:17:45.438Z,4.10
2019-03-10T09:18:45.202Z,5.20
2019-03-10T09:19:45.173Z,2.30
2019-03-10T09:20:45.428Z,3.90
2019-03-10T09:21:45.153Z,3.20
2019-03-10T09:22:45.203Z,10.20
2019-03-10T09:23:45.131Z,6.30
2019-03-10T09:24:45.119Z,6.00
2019-03-10T09:25:45.118Z,5.60
2019-03-10T09:26:45.098Z,4.20
2019-03-10T09:27:45.843Z,5.50
2019-03-10T09:28:45.078Z,4.60
2019-03-10T09:29:45.253Z,4.60
2019-03-10T09:30:45.092Z,5.80
2019-03-10T09:31:45.079Z,3.10
2019-03-10T09:32:45.146Z,5.00
2019-03-10T09:33:45.037Z,4.90
2019-03-10T09:34:45.027Z,4.30
2019-03-10T09:35:45.032Z,4.10
2019-03-10T09:36:44.988Z,4.00
2019-03-10T09:37:45.041Z,4.00
2019-03-10T09:38:44.967Z,4.20
2019-03-10T09:39:44.990Z,3.20
2019-03-10T09:40:45.207Z,3.60
2019-03-10T09:41:44.941Z,4.80
2019-03-10T09:42:44.963Z,6.80
2019-03-10T09:43:44.914Z,6.30
2019-03-10T09:44:44.906Z,3.50
2019-03-10T09:45:44.906Z,4.30
2019-03-10T09:46:44.881Z,6.40
2019-03-10T09:47:44.968Z,6.70
2019-03-10T09:48:44.937Z,5.30
2019-03-10T09:49:44.854Z,4.40
2019-03-10T09:50:44.937Z,4.60
2019-03-10T09:51:44.900Z,4.40
2019-03-10T09:52:44.843Z,5.10
2019-03-10T09:53:44.836Z,4.20
2019-03-10T09:54:44.847Z,4.20
2019-03-10T09:55:44.786Z,3.90
2019-03-10T09:56:44.783Z,5.70
2019-03-10T09:57:44.940Z,4.00
2019-03-10T09:58:44.812Z,4.80
2019-03-10T09:59:44.759Z,3.90
2019-03-10T10:00:44.778Z,5.80
2019-03-10T10:01:44.742Z,4.40
2019-03-10T10:02:44.878Z,5.50
2019-03-10T10:03:44.707Z,4.80
2019-03-10T10:04:44.703Z,4.40
2019-03-10T10:05:44.682Z,6.00
2019-03-10T10:06:44.678Z,5.40
2019-03-10T10:07:44.806Z,5.50
2019-03-10T10:08:45.416Z,4.20
2019-03-10T10:09:44.667Z,6.80
2019-03-10T10:10:44.626Z,8.30
2019-03-10T10:11:44.616Z,6.80
2019-03-10T10:12:44.740Z,4.90
2019-03-10T10:13:44.596Z,4.60
2019-03-10T10:14:44.582Z,6.10
2019-03-10T10:15:44.572Z,5.70
2019-03-10T10:16:44.566Z,4.90
2019-03-10T10:17:44.571Z,6.40
2019-03-10T10:18:44.547Z,6.60
2019-03-10T10:19:44.537Z,5.40
2019-03-10T10:20:44.531Z,5.70
2019-03-10T10:21:44.535Z,6.30
2019-03-10T10:22:44.670Z,7.20
2019-03-10T10:23:44.483Z,6.00
2019-03-10T10:24:44.481Z,5.30
2019-03-10T10:25:44.597Z,4.40
2019-03-10T10:26:44.495Z,8.50
2019-03-10T10:27:44.540Z,5.20
2019-03-10T10:28:44.429Z,6.10
2019-03-10T10:29:44.431Z,6.40
2019-03-10T10:30:44.416Z,5.30
2019-03-10T10:31:44.410Z,4.60
2019-03-10T10:32:44.884Z,4.10
2019-03-10T10:33:44.387Z,3.30
2019-03-10T10:34:44.397Z,4.10
2019-03-10T10:35:44.353Z,3.90
2019-03-10T10:36:44.376Z,4.70
2019-03-10T10:37:44.427Z,2.90
2019-03-10T10:38:44.337Z,4.00
2019-03-10T10:39:44.309Z,2.60
2019-03-10T10:40:44.301Z,2.80
2019-03-10T10:41:44.474Z,3.10
2019-03-10T10:42:44.301Z,3.20
2019-03-10T10:43:44.503Z,2.70
2019-03-10T10:44:44.252Z,3.00
2019-03-10T10:45:44.257Z,3.20
2019-03-10T10:46:44.238Z,3.20
2019-03-10T10:47:44.397Z,2.70
2019-03-10T10:48:44.208Z,2.60
2019-03-10T10:49:44.205Z,3.10
2019-03-10T10:50:44.215Z,2.50
2019-03-10T10:51:44.190Z,3.50
2019-03-10T10:52:44.258Z,3.30
2019-03-10T10:53:44.169Z,2.60
2019-03-10T10:54:44.148Z,2.10
2019-03-10T10:55:44.151Z,2.60
2019-03-10T10:56:44.133Z,2.70
2019-03-10T10:57:44.129Z,2.40
2019-03-10T10:58:44.150Z,1.80
2019-03-10T10:59:44.126Z,3.40
2019-03-10T11:00:44.089Z,2.20
2019-03-10T11:01:44.133Z,2.70
2019-03-10T11:02:44.172Z,2.20
2019-03-10T11:03:44.086Z,3.60
2019-03-10T11:04:44.051Z,1.70
2019-03-10T11:05:44.070Z,2.20
2019-03-10T11:06:44.013Z,2.90
2019-03-10T11:07:44.013Z,1.80
2019-03-10T11:08:43.999Z,2.50
2019-03-10T11:09:44.009Z,2.80
2019-03-10T11:10:43.969Z,2.00
2019-03-10T11:11:43.997Z,1.50
2019-03-10T11:12:44.237Z,2.50
2019-03-10T11:13:43.942Z,2.80
2019-03-10T11:14:43.940Z,1.80
2019-03-10T11:15:43.966Z,3.00
2019-03-10T11:16:45.515Z,2.00
2019-03-10T11:17:44.100Z,2.10
2019-03-10T11:18:43.882Z,3.00
2019-03-10T11:19:43.942Z,1.40
2019-03-10T11:20:43.881Z,1.30
2019-03-10T11:21:43.857Z,1.30
2019-03-10T11:22:44.110Z,2.00
2019-03-10T11:23:43.829Z,1.50
2019-03-10T11:24:43.817Z,1.30
2019-03-10T11:25:43.810Z,1.70
2019-03-10T11:26:43.799Z,1.30
2019-03-10T11:27:43.973Z,1.40
2019-03-10T11:28:43.775Z,1.70
2019-03-10T11:29:43.766Z,3.10
2019-03-10T11:30:43.760Z,1.00
2019-03-10T11:31:43.751Z,0.90
2019-03-10T11:32:43.788Z,2.60
2019-03-10T11:33:43.771Z,3.90
2019-03-10T11:34:43.714Z,1.20
2019-03-10T11:35:43.703Z,2.20
2019-03-10T11:36:43.691Z,2.40
2019-03-10T11:37:43.793Z,0.80
2019-03-10T11:38:43.677Z,1.30
2019-03-10T11:39:43.657Z,1.80
2019-03-10T11:40:43.658Z,2.50
2019-03-10T11:41:43.647Z,1.50
2019-03-10T11:42:43.784Z,2.30
2019-03-10T11:43:43.625Z,1.90
2019-03-10T11:44:43.605Z,2.40
2019-03-10T11:45:43.606Z,3.00
2019-03-10T11:46:43.580Z,3.50
2019-03-10T11:47:43.765Z,2.20
2019-03-10T11:48:43.581Z,3.30
2019-03-10T11:49:43.557Z,2.40
2019-03-10T11:50:43.552Z,1.50
2019-03-10T11:51:43.563Z,1.60
2019-03-10T11:52:43.537Z,2.70
2019-03-10T11:53:43.534Z,1.80
2019-03-10T11:54:43.491Z,3.10
2019-03-10T11:55:43.490Z,1.60
2019-03-10T11:56:43.558Z,1.80
2019-03-10T11:57:43.487Z,1.50
2019-03-10T11:58:43.463Z,2.20
2019-03-10T11:59:43.455Z,1.10
2019-03-10T12:00:43.431Z,1.20
2019-03-10T12:01:43.416Z,2.00
2019-03-10T12:02:43.410Z,2.30
2019-03-10T12:03:43.407Z,2.40
2019-03-10T12:04:43.404Z,1.70
2019-03-10T12:05:43.372Z,1.90
2019-03-10T12:06:43.378Z,1.50
2019-03-10T12:07:43.371Z,1.00
2019-03-10T12:08:43.364Z,1.10
2019-03-10T12:09:43.333Z,2.00
2019-03-10T12:10:43.317Z,1.20
2019-03-10T12:11:43.329Z,1.40
2019-03-10T12:12:43.341Z,0.70
2019-03-10T12:13:43.334Z,0.70
2019-03-10T12:14:43.278Z,1.70
2019-03-10T12:15:43.298Z,1.50
2019-03-10T12:16:43.277Z,0.70
2019-03-10T12:17:43.248Z,0.70
2019-03-10T12:18:43.259Z,1.50
2019-03-10T12:19:43.247Z,0.60
2019-03-10T12:20:43.250Z,1.50
2019-03-10T12:21:43.198Z,1.60
2019-03-10T12:22:43.199Z,1.60
2019-03-10T12:23:43.191Z,0.80
2019-03-10T12:24:43.191Z,1.30
2019-03-10T12:25:43.152Z,0.70
2019-03-10T12:26:43.143Z,2.60
2019-03-10T12:27:43.204Z,0.80
2019-03-10T12:28:43.128Z,3.90
2019-03-10T12:29:43.120Z,1.50
2019-03-10T12:30:43.115Z,0.60
2019-03-10T12:31:43.097Z,0.70
2019-03-10T12:32:43.105Z,0.80
2019-03-10T12:33:43.094Z,0.50
2019-03-10T12:34:43.082Z,0.70
2019-03-10T12:35:43.059Z,0.80
2019-03-10T12:36:43.147Z,0.90
2019-03-10T12:37:43.176Z,1.40
2019-03-10T12:38:43.014Z,1.00
2019-03-10T12:39:43.013Z,2.00
2019-03-10T12:40:43.060Z,0.80
2019-03-10T12:41:42.983Z,0.90
2019-03-10T12:42:42.967Z,1.50
2019-03-10T12:43:42.955Z,1.20
2019-03-10T12:44:42.978Z,0.70
2019-03-10T12:45:42.935Z,0.60
2019-03-10T12:46:42.929Z,1.00
2019-03-10T12:47:42.913Z,1.90
2019-03-10T12:48:42.900Z,1.00
2019-03-10T12:49:42.932Z,1.20
2019-03-10T12:50:42.887Z,0.70
2019-03-10T12:51:42.868Z,1.00
2019-03-10T12:52:42.902Z,0.50
2019-03-10T12:53:42.847Z,0.60
2019-03-10T12:54:42.842Z,1.40
2019-03-10T12:55:42.841Z,0.70
2019-03-10T12:56:42.839Z,0.80
2019-03-10T12:57:42.935Z,1.80
2019-03-10T12:58:42.796Z,0.90
2019-03-10T12:59:42.813Z,1.00
2019-03-10T13:00:42.776Z,1.20
2019-03-10T13:01:42.763Z,2.20
2019-03-10T13:02:42.753Z,3.40
2019-03-10T13:03:42.801Z,1.30
2019-03-10T13:04:42.753Z,1.10
2019-03-10T13:05:42.723Z,1.50
2019-03-10T13:06:42.718Z,1.00
2019-03-10T13:07:42.703Z,1.60
2019-03-10T13:08:42.707Z,0.70
2019-03-10T13:09:42.685Z,1.60
2019-03-10T13:10:42.661Z,1.60
2019-03-10T13:11:42.656Z,1.40
2019-03-10T13:12:42.726Z,0.80
2019-03-10T13:13:42.639Z,1.40
2019-03-10T13:14:42.631Z,1.20
2019-03-10T13:15:42.604Z,1.10
2019-03-10T13:16:42.601Z,0.70
2019-03-10T13:17:42.742Z,1.20
2019-03-10T13:18:42.570Z,1.00